Time,TemperatureF,DewpointF,PressureIn,WindDirection,WindDirectionDegrees,WindSpeedMPH,WindSpeedGustMPH,Humidity,HourlyPrecipIn,Conditions,Clouds,dailyrainin,SoftwareType,DateUTC
2013-07-17 00:01:00,54.0,40.0,-100.00,West,269,6.0,11.0,60,0.00,,,-99.99,,2013-07-17 06:01:00,
2013-07-17 00:11:00,54.0,40.0,-100.00,West,269,6.0,11.0,60,0.00,,,-99.99,,2013-07-17 06:11:00,
2013-07-17 00:22:00,54.0,40.0,-100.00,West,269,6.0,11.0,60,0.00,,,-99.99,,2013-07-17 06:22:00,
2013-07-17 00:52:00,52.0,41.0,-100.00,NNE,28,4.0,7.0,66,0.00,,,-99.99,,2013-07-17 06:52:00,
2013-07-17 01:01:00,52.0,41.0,-100.00,NNE,28,4.0,7.0,66,0.00,,,-99.99,,2013-07-17 07:01:00,
2013-07-17 01:11:00,52.0,41.0,-100.00,NNE,28,4.0,7.0,66,0.00,,,-99.99,,2013-07-17 07:11:00,
2013-07-17 01:22:00,52.0,41.0,-100.00,NNE,28,4.0,7.0,66,0.00,,,-99.99,,2013-07-17 07:22:00,
2013-07-17 01:52:00,52.0,40.0,-100.00,NNE,27,4.0,8.0,64,0.00,,,-99.99,,2013-07-17 07:52:00,
2013-07-17 02:01:00,52.0,40.0,-100.00,NNE,27,4.0,8.0,64,0.00,,,-99.99,,2013-07-17 08:01:00,
2013-07-17 02:11:00,52.0,40.0,-100.00,NNE,27,4.0,8.0,64,0.00,,,-99.99,,2013-07-17 08:11:00,
2013-07-17 02:22:00,52.0,40.0,-100.00,NNE,27,4.0,8.0,64,0.00,,,-99.99,,2013-07-17 08:22:00,
2013-07-17 02:53:00,52.0,40.0,-100.00,East,90,3.0,10.0,63,0.00,,,-99.99,,2013-07-17 08:53:00,
2013-07-17 03:02:00,52.0,40.0,-100.00,East,90,3.0,10.0,63,0.00,,,-99.99,,2013-07-17 09:02:00,
2013-07-17 03:12:00,52.0,40.0,-100.00,East,90,3.0,10.0,63,0.00,,,-99.99,,2013-07-17 09:12:00,
2013-07-17 03:22:00,52.0,40.0,-100.00,East,90,3.0,10.0,63,0.00,,,-99.99,,2013-07-17 09:22:00,
2013-07-17 03:52:00,53.0,39.0,-100.00,East,88,4.0,11.0,59,0.00,,,-99.99,,2013-07-17 09:52:00,
2013-07-17 04:01:00,53.0,39.0,-100.00,East,88,4.0,11.0,59,0.00,,,-99.99,,2013-07-17 10:01:00,
2013-07-17 04:11:00,53.0,39.0,-100.00,East,88,4.0,11.0,59,0.00,,,-99.99,,2013-07-17 10:11:00,
2013-07-17 04:22:00,53.0,39.0,-100.00,East,88,4.0,11.0,59,0.00,,,-99.99,,2013-07-17 10:22:00,
2013-07-17 04:52:00,54.0,40.0,-100.00,West,263,3.0,43.0,59,0.00,,,-99.99,,2013-07-17 10:52:00,
2013-07-17 05:01:00,54.0,40.0,-100.00,West,263,3.0,43.0,59,0.00,,,-99.99,,2013-07-17 11:01:00,
2013-07-17 05:11:00,54.0,40.0,-100.00,West,263,3.0,43.0,59,0.00,,,-99.99,,2013-07-17 11:11:00,
2013-07-17 05:22:00,54.0,40.0,-100.00,West,263,3.0,43.0,59,0.00,,,-99.99,,2013-07-17 11:22:00,
2013-07-17 05:52:00,53.0,40.0,-100.00,NE,53,1.0,11.0,61,0.00,,,-99.99,,2013-07-17 11:52:00,
2013-07-17 06:01:00,53.0,40.0,-100.00,NE,53,1.0,11.0,61,0.00,,,-99.99,,2013-07-17 12:01:00,
2013-07-17 06:12:00,53.0,40.0,-100.00,NE,53,1.0,11.0,61,0.00,,,-99.99,,2013-07-17 12:12:00,
2013-07-17 06:22:00,53.0,40.0,-100.00,NE,53,1.0,11.0,61,0.00,,,-99.99,,2013-07-17 12:22:00,
2013-07-17 06:53:00,56.0,41.0,-100.00,NE,44,0.0,2.0,56,0.00,,,-99.99,,2013-07-17 12:53:00,
2013-07-17 07:52:00,58.0,41.0,-100.00,NNE,33,4.0,7.0,53,0.00,,,-99.99,,2013-07-17 13:52:00,
2013-07-17 08:02:00,58.0,41.0,-100.00,NNE,33,4.0,7.0,53,0.00,,,-99.99,,2013-07-17 14:02:00,
2013-07-17 08:11:00,58.0,41.0,-100.00,NNE,33,4.0,7.0,53,0.00,,,-99.99,,2013-07-17 14:11:00,
2013-07-17 08:22:00,58.0,41.0,-100.00,NNE,33,4.0,7.0,53,0.00,,,-99.99,,2013-07-17 14:22:00,
2013-07-17 08:52:00,60.0,44.0,-100.00,NNW,329,3.0,13.0,55,0.00,,,-99.99,,2013-07-17 14:52:00,
2013-07-17 09:01:00,60.0,44.0,-100.00,NNW,329,3.0,13.0,55,0.00,,,-99.99,,2013-07-17 15:01:00,
2013-07-17 09:12:00,60.0,44.0,-100.00,NNW,329,3.0,13.0,55,0.00,,,-99.99,,2013-07-17 15:12:00,
2013-07-17 09:22:00,60.0,44.0,-100.00,NNW,329,3.0,13.0,55,0.00,,,-99.99,,2013-07-17 15:22:00,
2013-07-17 09:52:00,61.0,45.0,-100.00,WNW,290,6.0,51.0,56,0.00,,,-99.99,,2013-07-17 15:52:00,
2013-07-17 10:02:00,61.0,45.0,-100.00,WNW,290,6.0,51.0,56,0.00,,,-99.99,,2013-07-17 16:02:00,
2013-07-17 10:11:00,61.0,45.0,-100.00,WNW,290,6.0,51.0,56,0.00,,,-99.99,,2013-07-17 16:11:00,
2013-07-17 10:21:00,61.0,45.0,-100.00,WNW,290,6.0,51.0,56,0.00,,,-99.99,,2013-07-17 16:21:00,
2013-07-17 10:52:00,64.0,47.0,-100.00,WNW,290,8.0,22.0,53,0.00,,,0.00,,2013-07-17 16:52:00,
2013-07-17 11:01:00,64.0,47.0,-100.00,WNW,290,8.0,22.0,53,0.00,,,0.00,,2013-07-17 17:01:00,
2013-07-17 11:11:00,64.0,47.0,-100.00,WNW,290,8.0,22.0,53,0.00,,,0.00,,2013-07-17 17:11:00,
2013-07-17 11:21:00,64.0,47.0,-100.00,WNW,290,8.0,22.0,53,0.00,,,0.00,,2013-07-17 17:21:00,
2013-07-17 11:52:00,66.0,46.0,-100.00,WNW,291,12.0,27.0,49,0.00,,,0.00,,2013-07-17 17:52:00,
2013-07-17 12:01:00,66.0,46.0,-100.00,WNW,291,12.0,27.0,49,0.00,,,0.00,,2013-07-17 18:01:00,
2013-07-17 12:11:00,66.0,46.0,-100.00,WNW,291,12.0,27.0,49,0.00,,,0.00,,2013-07-17 18:11:00,
2013-07-17 12:22:00,66.0,46.0,-100.00,WNW,291,12.0,27.0,49,0.00,,,0.00,,2013-07-17 18:22:00,
2013-07-17 12:52:00,68.0,45.0,-100.00,NW,311,9.0,27.0,44,0.00,,,0.00,,2013-07-17 18:52:00,
2013-07-17 13:01:00,68.0,45.0,-100.00,NW,311,9.0,27.0,44,0.00,,,0.00,,2013-07-17 19:01:00,
2013-07-17 13:11:00,68.0,45.0,-100.00,NW,311,9.0,27.0,44,0.00,,,0.00,,2013-07-17 19:11:00,
2013-07-17 13:22:00,68.0,45.0,-100.00,NW,311,9.0,27.0,44,0.00,,,0.00,,2013-07-17 19:22:00,
2013-07-17 13:53:00,69.0,44.0,-100.00,WNW,299,7.0,33.0,41,0.00,,,0.00,,2013-07-17 19:53:00,
2013-07-17 14:02:00,69.0,44.0,-100.00,WNW,299,7.0,33.0,41,0.00,,,0.00,,2013-07-17 20:02:00,
2013-07-17 14:11:00,69.0,44.0,-100.00,WNW,299,7.0,33.0,41,0.00,,,0.00,,2013-07-17 20:11:00,
2013-07-17 14:22:00,69.0,44.0,-100.00,WNW,299,7.0,33.0,41,0.00,,,0.00,,2013-07-17 20:22:00,
2013-07-17 14:53:00,71.0,43.0,-100.00,NNE,23,8.0,28.0,37,0.00,,,0.00,,2013-07-17 20:53:00,
2013-07-17 15:01:00,71.0,43.0,-100.00,NNE,23,8.0,28.0,37,0.00,,,0.00,,2013-07-17 21:01:00,
2013-07-17 15:12:00,71.0,43.0,-100.00,NNE,23,8.0,28.0,37,0.00,,,0.00,,2013-07-17 21:12:00,
2013-07-17 15:22:00,71.0,43.0,-100.00,NNE,23,8.0,28.0,37,0.00,,,0.00,,2013-07-17 21:22:00,
2013-07-17 15:53:00,74.0,40.0,-100.00,NW,317,8.0,18.0,29,0.00,,,0.00,,2013-07-17 21:53:00,
2013-07-17 16:01:00,74.0,40.0,-100.00,NW,317,8.0,18.0,29,0.00,,,0.00,,2013-07-17 22:01:00,
2013-07-17 16:11:00,74.0,40.0,-100.00,NW,317,8.0,18.0,29,0.00,,,0.00,,2013-07-17 22:11:00,
2013-07-17 16:21:00,74.0,40.0,-100.00,NW,317,8.0,18.0,29,0.00,,,0.00,,2013-07-17 22:21:00,
2013-07-17 16:53:00,62.0,42.0,-100.00,SE,134,20.0,28.0,48,-99.99,,,0.00,,2013-07-17 22:53:00,
2013-07-17 17:02:00,62.0,42.0,-100.00,SE,134,20.0,28.0,48,-99.99,,,0.00,,2013-07-17 23:02:00,
2013-07-17 17:11:00,62.0,42.0,-100.00,SE,134,20.0,28.0,48,-99.99,,,0.00,,2013-07-17 23:11:00,
2013-07-17 17:22:00,62.0,42.0,-100.00,SE,134,20.0,28.0,48,-99.99,,,0.00,,2013-07-17 23:22:00,
2013-07-17 17:52:00,60.0,46.0,-100.00,SE,145,11.0,24.0,60,0.01,,,0.01,,2013-07-17 23:52:00,
2013-07-17 18:01:00,60.0,46.0,-100.00,SE,145,11.0,24.0,60,0.01,,,0.01,,2013-07-18 00:01:00,
2013-07-17 18:11:00,60.0,46.0,-100.00,SE,145,11.0,24.0,60,0.01,,,0.01,,2013-07-18 00:11:00,
2013-07-17 18:22:00,60.0,46.0,-100.00,SE,145,11.0,24.0,60,0.01,,,0.01,,2013-07-18 00:22:00,
2013-07-17 18:52:00,64.0,38.0,-100.00,SSE,166,7.0,15.0,38,0.00,,,0.01,,2013-07-18 00:52:00,
2013-07-17 19:01:00,64.0,38.0,-100.00,SSE,166,7.0,15.0,38,0.00,,,0.01,,2013-07-18 01:01:00,
2013-07-17 19:11:00,64.0,38.0,-100.00,SSE,166,7.0,15.0,38,0.00,,,0.01,,2013-07-18 01:11:00,
2013-07-17 20:52:00,60.0,39.0,-100.00,SSW,206,7.0,16.0,46,0.00,,,0.01,,2013-07-18 02:52:00,
2013-07-17 21:01:00,60.0,39.0,-100.00,SSW,206,7.0,16.0,46,0.00,,,0.01,,2013-07-18 03:01:00,
2013-07-17 21:11:00,60.0,39.0,-100.00,SSW,206,7.0,16.0,46,0.00,,,0.01,,2013-07-18 03:11:00,
2013-07-17 21:22:00,60.0,39.0,-100.00,SSW,206,7.0,16.0,46,0.00,,,0.01,,2013-07-18 03:22:00,
2013-07-17 21:52:00,61.0,40.0,-100.00,West,274,1.0,16.0,45,0.00,,,0.01,,2013-07-18 03:52:00,
2013-07-17 22:02:00,61.0,40.0,-100.00,West,274,1.0,16.0,45,0.00,,,0.01,,2013-07-18 04:02:00,
2013-07-17 22:12:00,61.0,40.0,-100.00,West,274,1.0,16.0,45,0.00,,,0.01,,2013-07-18 04:12:00,
2013-07-17 22:22:00,61.0,40.0,-100.00,West,274,1.0,16.0,45,0.00,,,0.01,,2013-07-18 04:22:00,
2013-07-17 22:52:00,60.0,38.0,-100.00,West,270,1.0,8.0,44,0.00,,,0.01,,2013-07-18 04:52:00,
2013-07-17 23:02:00,60.0,38.0,-100.00,West,270,1.0,8.0,44,0.00,,,0.01,,2013-07-18 05:02:00,
2013-07-17 23:11:00,60.0,38.0,-100.00,West,270,1.0,8.0,44,0.00,,,0.01,,2013-07-18 05:11:00,
2013-07-17 23:21:00,60.0,38.0,-100.00,West,270,1.0,8.0,44,0.00,,,0.01,,2013-07-18 05:21:00,
2013-07-17 23:52:00,57.0,42.0,-100.00,West,278,5.0,9.0,57,-99.99,,,0.01,,2013-07-18 05:52:00,